Time;durP1;ratioP1;P1;durP2;ratioP2;P2;SDS_P1;SDS_P2;PMS_P1;PMS_P2;Temp;Humidity;BMP_temperature;BMP_pressure;BME280_temperature;BME280_humidity;BME280_pressure;Samples;Min_cycle;Max_cycle;Signal;HPM_P1;HPM_P2
2023/09/08 00:01:51;;;;;;;9.10;5.80;;;19.80;99.90;;;;;;5025982;28;20056;-84
2023/09/08 00:04:19;;;;;;;8.32;6.25;;;19.80;99.90;;;;;;5035197;28;20119;-84
2023/09/08 00:06:45;;;;;;;6.07;5.50;;;20.20;99.90;;;;;;5030948;28;20037;-84
2023/09/08 00:09:11;;;;;;;8.02;6.18;;;19.70;99.90;;;;;;5026618;28;20077;-84
2023/09/08 00:11:37;;;;;;;6.68;5.95;;;19.70;99.90;;;;;;5027547;28;20074;-84
2023/09/08 00:14:03;;;;;;;6.82;6.20;;;19.70;99.90;;;;;;5022475;28;20037;-84
2023/09/08 00:16:30;;;;;;;8.93;6.28;;;19.70;99.90;;;;;;5026535;28;20041;-84
2023/09/08 00:18:57;;;;;;;8.77;6.35;;;19.60;99.90;;;;;;5023632;28;20049;-83
2023/09/08 00:21:22;;;;;;;9.43;5.90;;;19.60;99.90;;;;;;5020712;28;20564;-84
2023/09/08 00:23:48;;;;;;;8.20;5.65;;;19.60;99.90;;;;;;5025925;28;20037;-84
2023/09/08 00:26:13;;;;;;;7.85;6.07;;;19.50;99.90;;;;;;5015886;28;20060;-84
2023/09/08 00:28:39;;;;;;;6.50;5.85;;;19.50;99.90;;;;;;5027375;28;20045;-84
2023/09/08 00:31:07;;;;;;;6.97;6.18;;;19.50;99.90;;;;;;5020629;28;20384;-83
2023/09/08 00:33:32;;;;;;;6.93;6.22;;;19.50;99.90;;;;;;5024643;28;20073;-84
2023/09/08 00:35:58;;;;;;;7.13;6.43;;;19.80;99.90;;;;;;5024591;28;20425;-84
2023/09/08 00:38:24;;;;;;;7.85;6.95;;;19.50;99.90;;;;;;5018091;28;20398;-84
2023/09/08 00:40:49;;;;;;;8.32;6.25;;;19.40;99.90;;;;;;5019562;28;20099;-83
2023/09/08 00:43:16;;;;;;;6.80;6.20;;;20.00;99.90;;;;;;5027540;28;20107;-84
2023/09/08 00:45:42;;;;;;;6.80;6.13;;;19.40;99.90;;;;;;5025695;28;20038;-84
2023/09/08 00:48:09;;;;;;;8.00;7.28;;;19.40;99.90;;;;;;5023595;28;20061;-84
2023/09/08 00:50:36;;;;;;;7.88;6.57;;;19.30;99.90;;;;;;5019552;28;20037;-84
2023/09/08 00:53:04;;;;;;;8.15;5.97;;;19.30;99.90;;;;;;5021123;28;20054;-84
2023/09/08 00:55:31;;;;;;;6.75;6.07;;;19.40;99.90;;;;;;5029771;28;20413;-84
2023/09/08 00:57:58;;;;;;;6.93;6.22;;;19.30;99.90;;;;;;5023798;28;20038;-84
2023/09/08 01:00:24;;;;;;;7.35;6.65;;;19.30;99.90;;;;;;5035295;28;20060;-84
2023/09/08 01:02:50;;;;;;;6.70;6.07;;;19.30;99.90;;;;;;5027144;28;20096;-84
2023/09/08 01:05:16;;;;;;;7.75;7.00;;;19.30;99.90;;;;;;5021258;28;20046;-84
2023/09/08 01:07:42;;;;;;;8.98;6.43;;;19.30;99.90;;;;;;5024131;28;20046;-84
2023/09/08 01:10:08;;;;;;;8.38;7.00;;;19.20;99.90;;;;;;5030561;28;20046;-84
2023/09/08 01:12:34;;;;;;;9.82;7.15;;;19.10;99.90;;;;;;5028570;28;20037;-84
2023/09/08 01:15:01;;;;;;;9.38;7.25;;;19.10;99.90;;;;;;5022897;28;20048;-84
2023/09/08 01:17:27;;;;;;;7.72;7.03;;;19.10;99.90;;;;;;5022527;28;20033;-84
2023/09/08 01:19:55;;;;;;;10.63;7.63;;;19.30;99.90;;;;;;5019979;28;20053;-84
2023/09/08 01:22:49;;;;;;;8.32;7.13;;;19.00;99.90;;;;;;5022890;28;20041;-84
2023/09/08 01:25:21;;;;;;;12.93;8.00;;;19.00;99.90;;;;;;5018194;28;20045;-84
2023/09/08 01:27:55;;;;;;;8.30;7.57;;;19.00;99.90;;;;;;5022778;28;20405;-84
2023/09/08 01:30:23;;;;;;;9.50;8.35;;;19.00;99.90;;;;;;5018551;28;20167;-84
2023/09/08 01:32:50;;;;;;;9.55;7.60;;;19.00;99.90;;;;;;5025266;28;20050;-84
2023/09/08 01:35:16;;;;;;;7.57;6.88;;;19.10;99.90;;;;;;5006335;28;20053;-83
2023/09/08 01:37:45;;;;;;;10.15;6.78;;;18.90;99.90;;;;;;5028587;28;20041;-84
2023/09/08 01:40:12;;;;;;;10.35;8.40;;;18.90;99.90;;;;;;5029781;28;20052;-84
2023/09/08 01:42:38;;;;;;;8.93;7.90;;;18.90;99.90;;;;;;5020930;28;20071;-84
2023/09/08 01:45:04;;;;;;;8.18;7.47;;;18.80;99.90;;;;;;5027366;28;20045;-84
2023/09/08 01:47:31;;;;;;;8.48;7.68;;;18.80;99.90;;;;;;5030132;28;20067;-84
2023/09/08 01:49:56;;;;;;;8.80;7.72;;;18.80;99.90;;;;;;5030179;28;20073;-84
2023/09/08 01:52:22;;;;;;;8.48;7.60;;;18.70;99.90;;;;;;5030486;28;20072;-83
2023/09/08 01:54:48;;;;;;;9.05;8.25;;;18.70;99.90;;;;;;5023800;28;20048;-83
2023/09/08 01:57:13;;;;;;;8.75;7.90;;;18.70;99.90;;;;;;5028304;28;20037;-84
2023/09/08 01:59:39;;;;;;;9.50;8.70;;;18.60;99.90;;;;;;5025879;28;20073;-83
2023/09/08 02:02:06;;;;;;;8.95;8.05;;;18.60;99.90;;;;;;5024393;28;20041;-84
2023/09/08 02:04:32;;;;;;;10.43;8.15;;;18.60;99.90;;;;;;5024889;28;20037;-84
2023/09/08 02:06:58;;;;;;;9.70;8.70;;;18.60;99.90;;;;;;5024391;28;20341;-84
2023/09/08 02:09:32;;;;;;;10.43;7.63;;;19.00;99.90;;;;;;5021800;28;20152;-83
2023/09/08 02:11:58;;;;;;;;;;;18.50;99.90;;;;;;5029799;28;20080;-83
2023/09/08 02:14:23;;;;;;;9.82;8.82;;;18.50;99.90;;;;;;5022927;28;20345;-83
2023/09/08 02:16:49;;;;;;;9.68;7.63;;;18.50;99.90;;;;;;5036912;28;20088;-84
2023/09/08 02:19:14;;;;;;;8.77;7.80;;;18.50;99.90;;;;;;5031301;28;20547;-84
2023/09/08 02:21:40;;;;;;;9.82;8.10;;;18.50;99.90;;;;;;5020810;28;20047;-84
2023/09/08 02:24:06;;;;;;;9.98;8.18;;;18.40;99.90;;;;;;5026400;28;20048;-83
2023/09/08 02:26:33;;;;;;;9.15;7.95;;;18.40;99.90;;;;;;5027441;28;20041;-84
2023/09/08 02:29:00;;;;;;;8.25;7.20;;;18.50;99.90;;;;;;5020146;28;20045;-84
2023/09/08 02:31:26;;;;;;;9.05;8.27;;;18.50;99.90;;;;;;5028127;28;20041;-84
2023/09/08 02:33:52;;;;;;;11.13;8.10;;;18.50;99.90;;;;;;5018961;28;20092;-84
2023/09/08 02:36:25;;;;;;;9.07;8.15;;;18.70;99.90;;;;;;5024333;28;20049;-85
2023/09/08 02:38:51;;;;;;;10.68;8.60;;;18.40;99.90;;;;;;5026921;28;20046;-85
2023/09/08 02:41:16;;;;;;;8.90;8.00;;;18.40;99.90;;;;;;5004916;28;20042;-84
2023/09/08 02:43:42;;;;;;;7.93;7.20;;;18.40;99.90;;;;;;5021814;28;20516;-85
2023/09/08 02:46:09;;;;;;;11.50;7.57;;;18.40;99.90;;;;;;5026094;28;20053;-84
2023/09/08 02:48:35;;;;;;;10.50;8.07;;;18.40;99.90;;;;;;5006379;28;20065;-84
2023/09/08 02:51:01;;;;;;;10.23;7.75;;;18.30;99.90;;;;;;5022329;28;20060;-84
2023/09/08 02:53:28;;;;;;;8.45;7.55;;;18.40;99.90;;;;;;5029117;28;20490;-84
2023/09/08 02:55:55;;;;;;;9.93;7.40;;;18.30;99.90;;;;;;5017102;28;20041;-85
2023/09/08 02:58:21;;;;;;;9.32;8.27;;;18.30;99.90;;;;;;5019324;28;20038;-84
2023/09/08 03:00:46;;;;;;;9.30;8.38;;;18.30;99.90;;;;;;5026431;28;20504;-85
2023/09/08 03:03:12;;;;;;;11.55;7.85;;;18.20;99.90;;;;;;5020184;28;20071;-84
2023/09/08 03:05:38;;;;;;;9.07;7.45;;;18.20;99.90;;;;;;5027288;28;20052;-84
2023/09/08 03:08:05;;;;;;;8.95;8.15;;;18.20;99.90;;;;;;5006878;28;20046;-84
2023/09/08 03:10:33;;;;;;;9.10;8.30;;;18.10;99.90;;;;;;5027328;28;20112;-83
2023/09/08 03:13:00;;;;;;;9.55;7.75;;;18.20;99.90;;;;;;5026184;28;20126;-84
2023/09/08 03:15:28;;;;;;;8.93;8.02;;;18.20;99.90;;;;;;5020299;28;20060;-84
2023/09/08 03:17:54;;;;;;;9.85;7.82;;;18.10;99.90;;;;;;5025190;28;20524;-83
2023/09/08 03:20:20;;;;;;;10.88;8.18;;;18.10;99.90;;;;;;5021397;28;20077;-84
2023/09/08 03:22:46;;;;;;;8.80;7.90;;;18.10;99.90;;;;;;5028112;28;20138;-84
2023/09/08 03:25:14;;;;;;;10.38;8.20;;;18.10;99.90;;;;;;5018982;28;20050;-84
2023/09/08 03:27:39;;;;;;;11.75;8.35;;;18.10;99.90;;;;;;5024712;28;20045;-84
2023/09/08 03:30:06;;;;;;;11.40;9.18;;;18.00;99.90;;;;;;5019986;28;20395;-84
2023/09/08 03:32:32;;;;;;;10.07;9.00;;;18.00;99.90;;;;;;5029092;28;20088;-84
2023/09/08 03:34:57;;;;;;;11.73;8.57;;;18.00;99.90;;;;;;5014211;28;20483;-84
2023/09/08 03:37:23;;;;;;;12.80;9.15;;;17.90;99.90;;;;;;5025027;28;20221;-84
2023/09/08 03:39:49;;;;;;;14.55;9.18;;;17.90;99.90;;;;;;5017340;28;20050;-84
2023/09/08 03:42:15;;;;;;;10.55;9.18;;;17.90;99.90;;;;;;5019856;28;20553;-84
2023/09/08 03:44:40;;;;;;;9.80;8.90;;;17.80;99.90;;;;;;5023552;28;20092;-84
2023/09/08 03:47:06;;;;;;;9.48;8.45;;;17.80;99.90;;;;;;5017214;28;20132;-85
2023/09/08 03:49:33;;;;;;;10.07;9.07;;;17.80;99.90;;;;;;5019618;28;20042;-85
2023/09/08 03:51:58;;;;;;;9.18;8.25;;;17.80;99.90;;;;;;5030137;28;20121;-85
2023/09/08 03:54:24;;;;;;;10.57;9.43;;;18.30;99.90;;;;;;5020265;28;20112;-85
2023/09/08 03:56:50;;;;;;;12.98;8.73;;;17.70;99.90;;;;;;5025438;28;20463;-85
2023/09/08 03:59:15;;;;;;;11.23;8.57;;;17.60;99.90;;;;;;5028619;28;20033;-85
2023/09/08 04:01:41;;;;;;;10.50;8.38;;;17.70;99.90;;;;;;5027859;28;20046;-85
2023/09/08 04:04:07;;;;;;;9.68;8.80;;;17.70;99.90;;;;;;5028358;28;20071;-85
2023/09/08 04:06:33;;;;;;;9.85;8.85;;;17.70;99.90;;;;;;5019559;28;20038;-85
2023/09/08 04:08:58;;;;;;;9.65;8.18;;;17.70;99.90;;;;;;5026683;28;20053;-85
2023/09/08 04:11:25;;;;;;;9.95;9.00;;;17.60;99.90;;;;;;5037371;28;20367;-84
2023/09/08 04:13:51;;;;;;;9.18;8.02;;;17.60;99.90;;;;;;5020119;28;20425;-85
2023/09/08 04:16:17;;;;;;;10.18;9.18;;;17.70;99.90;;;;;;5030162;28;20030;-85
2023/09/08 04:18:43;;;;;;;12.20;8.88;;;17.60;99.90;;;;;;5024917;28;20033;-86
2023/09/08 04:21:09;;;;;;;11.20;9.65;;;17.60;99.90;;;;;;5024358;28;20060;-85
2023/09/08 04:23:34;;;;;;;9.23;8.38;;;17.50;99.90;;;;;;5025850;28;20469;-85
2023/09/08 04:26:00;;;;;;;9.05;8.35;;;17.50;99.90;;;;;;5023899;28;20041;-85
2023/09/08 04:28:26;;;;;;;11.45;9.02;;;17.50;99.90;;;;;;5025301;28;20052;-85
2023/09/08 04:30:52;;;;;;;9.93;8.30;;;17.50;99.90;;;;;;5024319;28;20042;-85
2023/09/08 04:33:18;;;;;;;9.32;8.43;;;17.50;99.90;;;;;;5026087;28;20033;-85
2023/09/08 04:35:43;;;;;;;9.63;8.52;;;17.50;99.90;;;;;;5034300;28;20045;-85
2023/09/08 04:38:11;;;;;;;9.93;8.98;;;17.60;99.90;;;;;;5033147;28;20116;-84
2023/09/08 04:40:41;;;;;;;10.30;9.30;;;17.70;99.90;;;;;;5026479;28;20041;-84
2023/09/08 04:43:07;;;;;;;10.48;9.50;;;17.50;99.90;;;;;;5026555;28;20535;-84
2023/09/08 04:45:33;;;;;;;13.35;9.38;;;17.50;99.90;;;;;;5026422;28;20128;-85
2023/09/08 04:47:59;;;;;;;12.95;9.43;;;17.40;99.90;;;;;;5025859;28;20474;-84
2023/09/08 04:50:24;;;;;;;10.27;9.20;;;17.70;99.90;;;;;;5028959;28;20053;-83
2023/09/08 04:52:50;;;;;;;9.20;8.32;;;17.50;99.90;;;;;;5027456;28;20422;-84
2023/09/08 04:55:17;;;;;;;11.52;8.90;;;18.70;99.90;;;;;;5026883;28;20057;-85
2023/09/08 04:57:43;;;;;;;10.45;9.45;;;17.40;99.90;;;;;;5025075;28;20119;-84
2023/09/08 05:00:09;;;;;;;12.23;7.85;;;17.40;99.90;;;;;;5025000;28;20565;-85
2023/09/08 05:02:34;;;;;;;9.43;8.57;;;17.40;99.90;;;;;;5028220;28;20107;-84
2023/09/08 05:05:00;;;;;;;15.05;9.07;;;17.30;99.90;;;;;;5024041;28;20486;-85
2023/09/08 05:07:26;;;;;;;10.30;9.32;;;17.30;99.90;;;;;;5026265;28;20034;-84
2023/09/08 05:09:51;;;;;;;10.50;8.45;;;17.30;99.90;;;;;;5026624;28;20504;-84
2023/09/08 05:12:17;;;;;;;11.15;9.63;;;17.30;99.90;;;;;;5020705;28;20034;-85
2023/09/08 05:14:44;;;;;;;10.05;9.07;;;17.30;99.90;;;;;;5022169;28;20506;-85
2023/09/08 05:17:09;;;;;;;9.13;8.20;;;17.30;99.90;;;;;;5025909;28;20044;-85
2023/09/08 05:19:35;;;;;;;10.20;8.15;;;17.30;99.90;;;;;;5027349;28;20073;-85
2023/09/08 05:22:01;;;;;;;13.43;9.68;;;17.30;99.90;;;;;;5026572;28;20053;-85
2023/09/08 05:24:26;;;;;;;11.25;9.35;;;17.30;99.90;;;;;;4670726;28;10000519;-84
2023/09/08 05:26:53;;;;;;;10.32;8.20;;;17.30;99.90;;;;;;5025984;28;20422;-83
2023/09/08 05:29:19;;;;;;;10.88;9.27;;;17.30;99.90;;;;;;5028172;28;20083;-84
2023/09/08 05:31:45;;;;;;;9.95;8.93;;;17.90;99.90;;;;;;5025790;28;20052;-84
2023/09/08 05:34:10;;;;;;;10.02;8.95;;;17.20;99.90;;;;;;5026171;28;20034;-84
2023/09/08 05:36:38;;;;;;;9.63;8.60;;;17.90;99.90;;;;;;5029530;28;20041;-84
2023/09/08 05:39:04;;;;;;;10.73;8.80;;;17.20;99.90;;;;;;5022443;28;20081;-85
2023/09/08 05:41:30;;;;;;;10.70;8.85;;;17.20;99.90;;;;;;5025565;28;20046;-85
2023/09/08 05:43:56;;;;;;;10.07;8.98;;;16.10;99.90;;;;;;5026051;28;20045;-85
2023/09/08 05:46:21;;;;;;;12.18;9.80;;;17.30;99.90;;;;;;5024072;28;20054;-83
2023/09/08 05:48:47;;;;;;;9.57;8.43;;;17.30;99.90;;;;;;5027848;28;20045;-83
2023/09/08 05:51:15;;;;;;;11.27;8.85;;;18.00;99.90;;;;;;5031782;28;20397;-84
2023/09/08 05:53:41;;;;;;;9.73;8.75;;;17.30;99.90;;;;;;5023567;28;20057;-84
2023/09/08 05:56:07;;;;;;;10.18;9.07;;;17.30;99.90;;;;;;5026910;28;20048;-89
2023/09/08 05:58:33;;;;;;;12.20;9.23;;;17.30;99.90;;;;;;5031187;28;20068;-85
2023/09/08 06:01:01;;;;;;;9.35;8.55;;;17.80;99.90;;;;;;5036946;28;20046;-85
2023/09/08 06:03:27;;;;;;;9.48;8.57;;;17.30;99.90;;;;;;5024869;28;20043;-85
2023/09/08 06:05:53;;;;;;;8.73;7.93;;;17.40;99.90;;;;;;5024698;28;20474;-85
2023/09/08 06:08:18;;;;;;;10.45;9.07;;;17.40;99.90;;;;;;5032468;28;20053;-84
2023/09/08 06:10:44;;;;;;;13.82;9.40;;;17.40;99.90;;;;;;5025230;28;20033;-84
2023/09/08 06:13:10;;;;;;;9.57;8.55;;;17.40;99.90;;;;;;5022948;28;20049;-85
2023/09/08 06:15:36;;;;;;;9.15;8.35;;;17.50;99.90;;;;;;5024098;28;20033;-86
2023/09/08 06:18:02;;;;;;;13.05;8.60;;;17.40;99.90;;;;;;5023659;28;20434;-85
2023/09/08 06:20:28;;;;;;;9.52;7.78;;;17.40;99.90;;;;;;5023538;28;20461;-87
2023/09/08 06:22:54;;;;;;;10.48;7.82;;;17.40;99.90;;;;;;5023513;28;20065;-88
2023/09/08 06:25:19;;;;;;;11.90;8.43;;;17.40;99.90;;;;;;5025953;28;20041;-87
2023/09/08 06:27:45;;;;;;;9.57;8.68;;;17.50;99.90;;;;;;5024250;28;20124;-87
2023/09/08 06:30:13;;;;;;;9.90;8.73;;;17.50;99.90;;;;;;5030637;28;20084;-85
2023/09/08 06:32:45;;;;;;;10.18;8.25;;;17.60;99.90;;;;;;5028219;28;20048;-84
2023/09/08 06:35:11;;;;;;;9.30;8.32;;;17.60;99.90;;;;;;5026347;28;21245;-83
2023/09/08 06:37:37;;;;;;;10.15;8.82;;;17.60;99.90;;;;;;5029156;28;20060;-88
2023/09/08 06:40:04;;;;;;;9.25;8.25;;;17.70;99.90;;;;;;5023803;28;20037;-84
2023/09/08 06:42:29;;;;;;;9.18;8.38;;;17.70;99.90;;;;;;5023260;28;20072;-83
2023/09/08 06:44:58;;;;;;;9.77;8.70;;;18.20;99.90;;;;;;5028912;28;20498;-83
2023/09/08 06:47:23;;;;;;;8.75;7.60;;;17.80;99.90;;;;;;5021805;28;20053;-83
2023/09/08 06:49:49;;;;;;;9.85;8.02;;;17.80;99.90;;;;;;5022503;28;20504;-83
2023/09/08 06:52:16;;;;;;;10.27;7.97;;;17.90;99.90;;;;;;5023177;28;20037;-83
2023/09/08 06:54:42;;;;;;;8.63;7.60;;;17.90;99.90;;;;;;5023280;28;20095;-83
2023/09/08 06:57:07;;;;;;;8.50;7.43;;;17.90;99.90;;;;;;5019031;28;20452;-83
2023/09/08 06:59:33;;;;;;;8.52;7.57;;;18.00;99.90;;;;;;5017479;28;20038;-83
2023/09/08 07:01:58;;;;;;;8.48;7.68;;;18.00;99.90;;;;;;5026314;28;20053;-83
2023/09/08 07:04:24;;;;;;;9.98;7.90;;;18.10;99.90;;;;;;5019380;28;20044;-83
2023/09/08 07:06:50;;;;;;;9.55;7.18;;;18.10;99.90;;;;;;5028841;28;20052;-83
2023/09/08 07:09:16;;;;;;;8.07;7.05;;;18.20;99.90;;;;;;5019520;28;20137;-83
2023/09/08 07:11:41;;;;;;;8.38;7.47;;;18.20;99.90;;;;;;5022361;28;20057;-83
2023/09/08 07:14:07;;;;;;;8.23;7.35;;;18.30;99.90;;;;;;5018939;28;20069;-83
2023/09/08 07:16:32;;;;;;;8.63;6.78;;;18.30;99.90;;;;;;5023989;28;20121;-83
2023/09/08 07:19:00;;;;;;;8.50;7.72;;;18.40;99.90;;;;;;5019986;28;20080;-83
2023/09/08 07:21:26;;;;;;;8.57;7.78;;;18.40;99.90;;;;;;5029791;28;20045;-83
2023/09/08 07:23:53;;;;;;;7.85;6.75;;;18.50;99.90;;;;;;5026504;28;20121;-83
2023/09/08 07:26:19;;;;;;;7.78;6.63;;;18.60;99.90;;;;;;5025343;28;20051;-82
2023/09/08 07:28:45;;;;;;;7.65;6.82;;;18.60;99.90;;;;;;5024120;28;20402;-83
2023/09/08 07:31:11;;;;;;;13.10;7.25;;;18.70;99.90;;;;;;5024114;28;20494;-83
2023/09/08 07:33:37;;;;;;;10.05;6.78;;;18.80;99.90;;;;;;5017935;28;20469;-83
2023/09/08 07:36:07;;;;;;;7.03;6.32;;;18.80;99.90;;;;;;5019963;28;20037;-83
2023/09/08 07:38:34;;;;;;;8.40;6.65;;;18.90;99.90;;;;;;5024518;28;20071;-82
2023/09/08 07:41:03;;;;;;;6.55;5.93;;;19.00;99.90;;;;;;5025061;28;20405;-83
2023/09/08 07:43:29;;;;;;;10.60;6.20;;;19.00;99.90;;;;;;5022711;28;20041;-83
2023/09/08 07:45:54;;;;;;;6.57;5.68;;;19.10;99.90;;;;;;5020646;28;20049;-83
2023/09/08 07:48:20;;;;;;;6.53;5.93;;;19.20;99.90;;;;;;5024896;28;20054;-83
2023/09/08 07:50:46;;;;;;;7.68;6.80;;;19.90;99.90;;;;;;5018939;28;20057;-82
2023/09/08 07:53:11;;;;;;;5.85;5.38;;;19.40;99.90;;;;;;5020283;28;20045;-83
2023/09/08 07:55:37;;;;;;;6.95;6.20;;;19.40;99.90;;;;;;5022561;28;20046;-83
2023/09/08 07:58:03;;;;;;;6.53;5.90;;;19.50;99.90;;;;;;5022087;28;20038;-83
2023/09/08 08:00:29;;;;;;;7.10;6.20;;;19.60;99.90;;;;;;5022061;28;20120;-83
2023/09/08 08:02:56;;;;;;;6.35;5.75;;;19.60;99.90;;;;;;5022713;28;20041;-83
2023/09/08 08:05:23;;;;;;;9.68;5.50;;;19.80;99.90;;;;;;5023687;28;20056;-83
2023/09/08 08:07:49;;;;;;;6.18;5.43;;;19.80;99.90;;;;;;5021770;28;20053;-83
2023/09/08 08:10:15;;;;;;;8.05;5.47;;;20.00;99.90;;;;;;5024567;28;20041;-83
2023/09/08 08:12:42;;;;;;;6.43;5.40;;;20.10;99.90;;;;;;5027174;28;20560;-83
2023/09/08 08:15:10;;;;;;;6.90;5.00;;;20.30;99.90;;;;;;5026021;28;20409;-83
2023/09/08 08:17:35;;;;;;;7.57;5.75;;;20.20;99.90;;;;;;5005015;28;20034;-83
2023/09/08 08:20:09;;;;;;;8.15;5.72;;;20.30;99.90;;;;;;5020418;28;20041;-83
2023/09/08 08:22:38;;;;;;;5.07;4.57;;;20.40;99.90;;;;;;5032598;28;20049;-83
2023/09/08 08:25:05;;;;;;;5.57;4.57;;;20.40;99.90;;;;;;5022705;28;20045;-83
2023/09/08 08:27:31;;;;;;;7.25;5.95;;;20.60;99.90;;;;;;5025229;28;20229;-82
2023/09/08 08:29:59;;;;;;;7.20;5.22;;;20.60;99.90;;;;;;5024230;28;20042;-83
2023/09/08 08:32:25;;;;;;;6.78;5.47;;;20.90;99.90;;;;;;5023233;28;20076;-84
2023/09/08 08:34:51;;;;;;;5.43;4.43;;;20.80;99.90;;;;;;5024246;28;20049;-84
2023/09/08 08:37:17;;;;;;;5.68;4.65;;;20.90;99.90;;;;;;5024217;28;20037;-84
2023/09/08 08:39:43;;;;;;;7.18;4.68;;;21.00;99.90;;;;;;5024425;28;20378;-84
2023/09/08 08:42:20;;;;;;;5.28;4.80;;;21.20;99.90;;;;;;5024659;28;20107;-84
2023/09/08 08:44:45;;;;;;;5.70;4.40;;;21.20;99.90;;;;;;5020812;28;20041;-84
2023/09/08 08:47:13;;;;;;;7.30;4.43;;;21.20;99.90;;;;;;5022407;28;20068;-84
2023/09/08 08:49:42;;;;;;;6.68;4.43;;;21.30;99.90;;;;;;5024004;28;20060;-84
2023/09/08 08:52:09;;;;;;;8.65;5.05;;;21.40;99.90;;;;;;5025334;28;20501;-84
2023/09/08 08:54:42;;;;;;;5.45;4.30;;;21.50;99.90;;;;;;5020417;28;20057;-84
2023/09/08 08:57:08;;;;;;;7.60;4.88;;;21.60;99.90;;;;;;5022221;28;20050;-84
2023/09/08 08:59:35;;;;;;;4.97;4.47;;;21.70;99.90;;;;;;5024954;28;20045;-84
2023/09/08 09:02:03;;;;;;;6.22;4.80;;;21.70;99.90;;;;;;5018500;28;20128;-83
2023/09/08 09:04:29;;;;;;;7.30;4.72;;;21.80;99.90;;;;;;5024195;28;20169;-84
2023/09/08 09:06:55;;;;;;;10.82;5.28;;;21.90;99.90;;;;;;5025489;28;20501;-85
2023/09/08 09:09:21;;;;;;;7.40;4.85;;;22.00;99.90;;;;;;5022661;28;20030;-80
2023/09/08 09:11:47;;;;;;;9.65;4.80;;;22.10;99.90;;;;;;5016825;28;20053;-82
2023/09/08 09:14:12;;;;;;;6.60;4.30;;;22.10;99.90;;;;;;5021382;28;20089;-83
2023/09/08 09:16:40;;;;;;;7.03;4.75;;;22.20;99.90;;;;;;5026712;28;20046;-85
2023/09/08 09:19:05;;;;;;;9.50;4.70;;;22.30;99.90;;;;;;5021231;28;20151;-84
2023/09/08 09:21:50;;;;;;;7.68;4.63;;;22.40;99.90;;;;;;5023162;28;20080;-85
2023/09/08 09:24:32;;;;;;;4.75;3.72;;;22.40;99.90;;;;;;5021766;28;20234;-84
2023/09/08 09:26:59;;;;;;;6.13;4.25;;;22.50;99.90;;;;;;5019962;28;20049;-84
2023/09/08 09:29:25;;;;;;;7.35;4.32;;;22.60;99.90;;;;;;5021795;28;20509;-85
2023/09/08 09:31:53;;;;;;;4.93;4.35;;;22.70;99.90;;;;;;5022507;28;20041;-85
2023/09/08 09:34:20;;;;;;;7.50;4.88;;;22.80;99.90;;;;;;5031292;28;20409;-85
2023/09/08 09:36:48;;;;;;;7.93;4.50;;;22.90;99.90;;;;;;5023918;28;20038;-85
2023/09/08 09:39:17;;;;;;;7.85;4.30;;;23.00;99.90;;;;;;5024274;28;20505;-84
2023/09/08 09:41:42;;;;;;;6.90;4.95;;;23.10;99.90;;;;;;5028321;28;20497;-84
2023/09/08 09:44:09;;;;;;;7.07;4.28;;;23.20;99.90;;;;;;5021121;28;20475;-84
2023/09/08 09:46:34;;;;;;;6.72;4.78;;;23.20;99.90;;;;;;5024698;28;20077;-84
2023/09/08 09:49:02;;;;;;;6.03;4.35;;;23.30;99.90;;;;;;5025735;28;20502;-85
2023/09/08 09:51:29;;;;;;;6.07;4.72;;;23.40;99.90;;;;;;5024204;28;20080;-84
2023/09/08 09:53:55;;;;;;;5.90;4.38;;;23.50;99.90;;;;;;5020936;28;20045;-83
2023/09/08 09:56:23;;;;;;;4.47;4.05;;;23.60;99.90;;;;;;5028709;28;20045;-83
2023/09/08 09:58:52;;;;;;;5.60;4.68;;;23.60;99.90;;;;;;5022265;28;20485;-84
2023/09/08 10:01:18;;;;;;;11.48;4.30;;;23.70;99.90;;;;;;5024437;28;20056;-84
2023/09/08 10:03:44;;;;;;;4.78;4.20;;;23.80;99.90;;;;;;5020345;28;20041;-84
2023/09/08 10:06:10;;;;;;;5.32;3.97;;;23.80;99.90;;;;;;5019653;28;20054;-84
2023/09/08 10:08:36;;;;;;;6.82;4.03;;;23.90;99.90;;;;;;5021810;28;20416;-84
2023/09/08 10:11:07;;;;;;;5.80;3.70;;;24.10;99.90;;;;;;5025492;28;20041;-84
2023/09/08 10:13:42;;;;;;;7.35;4.20;;;24.10;99.90;;;;;;5020944;28;20119;-84
2023/09/08 10:16:08;;;;;;;7.07;4.15;;;24.20;99.90;;;;;;5023139;28;20041;-84
2023/09/08 10:18:35;;;;;;;5.65;3.90;;;24.30;99.90;;;;;;5021671;28;20095;-85
2023/09/08 10:21:04;;;;;;;7.65;4.07;;;24.30;99.90;;;;;;5019799;28;20061;-84
2023/09/08 10:23:40;;;;;;;5.68;4.57;;;24.40;99.90;;;;;;5020847;28;20085;-84
2023/09/08 10:26:12;;;;;;;4.93;4.45;;;24.50;99.90;;;;;;5021885;28;20048;-84
2023/09/08 10:28:38;;;;;;;4.75;4.32;;;24.60;99.90;;;;;;5021203;28;20128;-84
2023/09/08 10:31:05;;;;;;;8.55;3.95;;;24.70;99.90;;;;;;5018196;28;20498;-84
2023/09/08 10:33:32;;;;;;;6.65;3.88;;;24.70;99.90;;;;;;5020724;28;20121;-84
2023/09/08 10:35:59;;;;;;;5.72;4.00;;;24.80;99.90;;;;;;5023375;28;20117;-84
2023/09/08 10:38:31;;;;;;;4.72;4.03;;;24.90;99.90;;;;;;5022874;28;20121;-84
2023/09/08 10:41:15;;;;;;;5.45;4.05;;;25.00;99.90;;;;;;5019060;28;20038;-84
2023/09/08 10:43:57;;;;;;;9.25;4.90;;;25.10;99.90;;;;;;5022325;28;20401;-84
2023/09/08 10:46:26;;;;;;;5.18;4.15;;;25.20;99.90;;;;;;5027573;28;20053;-85
2023/09/08 10:49:04;;;;;;;5.05;4.57;;;25.30;99.90;;;;;;5026567;28;20045;-84
2023/09/08 10:51:30;;;;;;;11.38;8.30;;;25.40;99.90;;;;;;5023022;28;20041;-84
2023/09/08 10:53:57;;;;;;;9.07;5.00;;;25.50;99.90;;;;;;5019863;28;20046;-85
2023/09/08 10:56:28;;;;;;;9.52;4.80;;;25.60;99.90;;;;;;5019398;28;20042;-85
2023/09/08 10:58:54;;;;;;;7.90;5.07;;;25.70;99.90;;;;;;5021563;28;20397;-85
2023/09/08 11:01:27;;;;;;;6.20;4.85;;;25.80;99.90;;;;;;5021380;28;20073;-84
2023/09/08 11:03:53;;;;;;;7.00;4.13;;;25.90;99.90;;;;;;5019588;28;20084;-84
2023/09/08 11:06:23;;;;;;;9.23;5.05;;;26.00;99.90;;;;;;5021661;28;20409;-84
2023/09/08 11:08:53;;;;;;;8.25;4.22;;;26.10;99.90;;;;;;5026422;28;20046;-85
2023/09/08 11:11:18;;;;;;;5.72;3.58;;;26.20;99.90;;;;;;5029992;28;20037;-84
2023/09/08 11:13:47;;;;;;;13.10;4.70;;;26.30;99.90;;;;;;5022605;28;20037;-85
2023/09/08 11:16:15;;;;;;;6.25;3.78;;;26.40;99.90;;;;;;5023808;28;20084;-85
2023/09/08 11:18:42;;;;;;;5.93;3.67;;;26.50;99.90;;;;;;5020723;28;20041;-84
2023/09/08 11:21:09;;;;;;;4.63;3.55;;;26.60;99.90;;;;;;5023623;28;20041;-85
2023/09/08 11:23:36;;;;;;;4.97;3.85;;;26.80;99.90;;;;;;5021450;28;20033;-84
2023/09/08 11:26:01;;;;;;;5.80;4.00;;;26.90;99.90;;;;;;5018412;28;20100;-84
2023/09/08 11:28:28;;;;;;;6.40;3.65;;;27.00;99.90;;;;;;5018678;28;20041;-85
2023/09/08 11:30:55;;;;;;;3.55;3.25;;;27.10;99.90;;;;;;5020019;28;20033;-85
2023/09/08 11:33:25;;;;;;;6.40;3.70;;;27.20;99.90;;;;;;5020582;28;20048;-85
2023/09/08 11:35:55;;;;;;;5.15;3.45;;;27.30;99.90;;;;;;5017864;28;20041;-85
2023/09/08 11:38:27;;;;;;;3.72;3.42;;;27.30;99.90;;;;;;5017819;28;20034;-83
2023/09/08 11:40:57;;;;;;;4.17;3.37;;;27.50;99.90;;;;;;5021343;28;20516;-85
2023/09/08 11:43:23;;;;;;;6.60;3.67;;;27.60;99.90;;;;;;5020965;28;20307;-85
2023/09/08 11:45:49;;;;;;;4.93;3.95;;;27.70;99.90;;;;;;5019235;28;20478;-85
2023/09/08 11:48:15;;;;;;;7.78;4.10;;;27.70;99.90;;;;;;5022049;28;20081;-83
2023/09/08 11:50:43;;;;;;;3.72;3.35;;;27.60;99.90;;;;;;5026099;28;20432;-83
2023/09/08 11:53:09;;;;;;;5.50;3.90;;;27.90;99.90;;;;;;5017677;28;20050;-83
2023/09/08 11:55:36;;;;;;;3.35;3.15;;;28.00;99.90;;;;;;5017256;28;20481;-83
2023/09/08 11:58:03;;;;;;;8.52;3.45;;;28.10;99.90;;;;;;5019337;28;20164;-83
2023/09/08 12:00:29;;;;;;;4.18;3.53;;;28.20;99.90;;;;;;5022522;28;20104;-82
2023/09/08 12:02:55;;;;;;;4.93;4.43;;;28.30;99.90;;;;;;5018874;28;20048;-85
2023/09/08 12:05:25;;;;;;;5.88;4.88;;;28.30;99.90;;;;;;5020529;28;20156;-85
2023/09/08 12:07:53;;;;;;;5.68;3.30;;;28.40;99.90;;;;;;5020789;28;20080;-84
2023/09/08 12:10:19;;;;;;;4.28;3.28;;;28.50;99.90;;;;;;5024501;28;20042;-85
2023/09/08 12:12:46;;;;;;;4.15;3.50;;;28.60;99.90;;;;;;5018350;28;20125;-84
2023/09/08 12:15:39;;;;;;;3.25;2.75;;;28.70;99.70;;;;;;5021696;28;20041;-84
2023/09/08 12:18:12;;;;;;;7.00;3.80;;;28.70;99.90;;;;;;5020872;28;20034;-84
2023/09/08 12:20:39;;;;;;;7.60;3.40;;;28.80;99.50;;;;;;5002332;28;20592;-84
2023/09/08 12:23:08;;;;;;;6.70;3.78;;;28.90;98.90;;;;;;5018786;28;20041;-84
2023/09/08 12:25:44;;;;;;;5.32;3.20;;;28.90;98.90;;;;;;5020730;28;20060;-84
2023/09/08 12:28:10;;;;;;;7.88;4.10;;;29.10;98.80;;;;;;5020525;28;20052;-84
2023/09/08 12:30:36;;;;;;;7.60;6.15;;;29.10;98.80;;;;;;5021350;28;20041;-85
2023/09/08 12:33:02;;;;;;;6.00;4.68;;;29.20;98.60;;;;;;5017596;28;20052;-84
2023/09/08 12:35:29;;;;;;;4.45;3.10;;;29.30;97.70;;;;;;5019409;28;20088;-84
2023/09/08 12:38:03;;;;;;;6.88;3.55;;;29.30;96.70;;;;;;5018669;28;20038;-85
2023/09/08 12:40:30;;;;;;;6.30;3.42;;;29.40;96.70;;;;;;5022194;28;20129;-84
2023/09/08 12:42:57;;;;;;;3.22;2.80;;;29.50;95.40;;;;;;5020234;28;20430;-84
2023/09/08 12:45:25;;;;;;;6.10;3.38;;;29.20;94.50;;;;;;5022236;28;20095;-84